sensor_id;sensor_type;location;lat;lon;timestamp;P1;durP1;ratioP1;P2;durP2;ratioP2
45326;SDS011;31062;49.678;24.560;2022-12-07T00:02:15;14.20;;;8.48;;
45326;SDS011;31062;49.678;24.560;2022-12-07T00:05:01;12.30;;;7.68;;
45326;SDS011;31062;49.678;24.560;2022-12-07T00:07:46;13.85;;;9.30;;
45326;SDS011;31062;49.678;24.560;2022-12-07T00:10:35;14.45;;;7.88;;
45326;SDS011;31062;49.678;24.560;2022-12-07T00:13:20;16.70;;;7.32;;
45326;SDS011;31062;49.678;24.560;2022-12-07T00:16:10;15.30;;;8.50;;
45326;SDS011;31062;49.678;24.560;2022-12-07T00:18:57;11.23;;;7.85;;
45326;SDS011;31062;49.678;24.560;2022-12-07T00:21:44;14.40;;;8.07;;
45326;SDS011;31062;49.678;24.560;2022-12-07T00:24:29;14.88;;;8.63;;
45326;SDS011;31062;49.678;24.560;2022-12-07T00:27:15;16.25;;;8.73;;
45326;SDS011;31062;49.678;24.560;2022-12-07T00:30:00;14.98;;;8.05;;
45326;SDS011;31062;49.678;24.560;2022-12-07T00:32:46;14.27;;;8.05;;
45326;SDS011;31062;49.678;24.560;2022-12-07T00:35:32;13.18;;;7.75;;
45326;SDS011;31062;49.678;24.560;2022-12-07T00:38:17;20.98;;;9.52;;
45326;SDS011;31062;49.678;24.560;2022-12-07T00:41:04;17.50;;;8.52;;
45326;SDS011;31062;49.678;24.560;2022-12-07T00:43:52;18.52;;;8.32;;
45326;SDS011;31062;49.678;24.560;2022-12-07T00:46:38;15.52;;;9.75;;
45326;SDS011;31062;49.678;24.560;2022-12-07T00:49:24;15.40;;;8.23;;
45326;SDS011;31062;49.678;24.560;2022-12-07T00:52:09;13.40;;;7.43;;
45326;SDS011;31062;49.678;24.560;2022-12-07T00:54:54;14.73;;;7.63;;
45326;SDS011;31062;49.678;24.560;2022-12-07T00:57:40;20.67;;;9.43;;
45326;SDS011;31062;49.678;24.560;2022-12-07T01:00:25;13.93;;;8.88;;
45326;SDS011;31062;49.678;24.560;2022-12-07T01:03:12;16.83;;;8.35;;
45326;SDS011;31062;49.678;24.560;2022-12-07T01:06:00;19.73;;;9.95;;
45326;SDS011;31062;49.678;24.560;2022-12-07T01:08:45;16.05;;;7.95;;
45326;SDS011;31062;49.678;24.560;2022-12-07T01:11:31;19.85;;;8.55;;
45326;SDS011;31062;49.678;24.560;2022-12-07T01:14:16;15.50;;;8.60;;
45326;SDS011;31062;49.678;24.560;2022-12-07T01:17:02;17.08;;;8.45;;
45326;SDS011;31062;49.678;24.560;2022-12-07T01:19:47;17.75;;;8.93;;
45326;SDS011;31062;49.678;24.560;2022-12-07T01:27:22;25.83;;;10.50;;
45326;SDS011;31062;49.678;24.560;2022-12-07T01:30:10;29.65;;;11.65;;
45326;SDS011;31062;49.678;24.560;2022-12-07T01:32:56;25.80;;;10.07;;
45326;SDS011;31062;49.678;24.560;2022-12-07T01:35:41;19.42;;;9.50;;
45326;SDS011;31062;49.678;24.560;2022-12-07T01:38:27;24.33;;;9.70;;
45326;SDS011;31062;49.678;24.560;2022-12-07T01:41:13;26.83;;;11.13;;
45326;SDS011;31062;49.678;24.560;2022-12-07T01:44:19;18.33;;;9.52;;
45326;SDS011;31062;49.678;24.560;2022-12-07T01:47:10;29.52;;;10.50;;
45326;SDS011;31062;49.678;24.560;2022-12-07T01:49:55;24.83;;;9.73;;
45326;SDS011;31062;49.678;24.560;2022-12-07T01:52:41;21.13;;;9.35;;
45326;SDS011;31062;49.678;24.560;2022-12-07T01:55:29;29.27;;;9.55;;
45326;SDS011;31062;49.678;24.560;2022-12-07T01:58:15;21.65;;;9.93;;
45326;SDS011;31062;49.678;24.560;2022-12-07T02:01:01;19.70;;;8.75;;
45326;SDS011;31062;49.678;24.560;2022-12-07T02:03:47;22.30;;;10.15;;
45326;SDS011;31062;49.678;24.560;2022-12-07T02:06:33;33.00;;;11.35;;
45326;SDS011;31062;49.678;24.560;2022-12-07T02:09:20;26.73;;;10.30;;
45326;SDS011;31062;49.678;24.560;2022-12-07T02:12:06;31.63;;;10.38;;
45326;SDS011;31062;49.678;24.560;2022-12-07T02:14:51;33.25;;;9.55;;
45326;SDS011;31062;49.678;24.560;2022-12-07T02:17:41;26.42;;;10.68;;
45326;SDS011;31062;49.678;24.560;2022-12-07T02:20:55;31.35;;;10.77;;
45326;SDS011;31062;49.678;24.560;2022-12-07T02:30:18;29.30;;;13.82;;
45326;SDS011;31062;49.678;24.560;2022-12-07T02:33:01;27.27;;;11.23;;
45326;SDS011;31062;49.678;24.560;2022-12-07T02:35:54;31.87;;;11.07;;
45326;SDS011;31062;49.678;24.560;2022-12-07T02:39:00;28.00;;;10.45;;
45326;SDS011;31062;49.678;24.560;2022-12-07T02:41:54;26.08;;;10.50;;
45326;SDS011;31062;49.678;24.560;2022-12-07T02:44:47;28.13;;;11.07;;
45326;SDS011;31062;49.678;24.560;2022-12-07T02:47:33;33.47;;;11.98;;
45326;SDS011;31062;49.678;24.560;2022-12-07T02:50:21;25.23;;;9.57;;
45326;SDS011;31062;49.678;24.560;2022-12-07T02:53:27;25.50;;;10.02;;
45326;SDS011;31062;49.678;24.560;2022-12-07T02:56:30;30.88;;;10.65;;
45326;SDS011;31062;49.678;24.560;2022-12-07T03:12:14;30.85;;;13.05;;
45326;SDS011;31062;49.678;24.560;2022-12-07T03:15:08;45.58;;;16.00;;
45326;SDS011;31062;49.678;24.560;2022-12-07T03:17:59;36.35;;;13.63;;
45326;SDS011;31062;49.678;24.560;2022-12-07T03:20:48;28.63;;;9.80;;
45326;SDS011;31062;49.678;24.560;2022-12-07T03:23:37;32.72;;;11.30;;
45326;SDS011;31062;49.678;24.560;2022-12-07T03:26:36;30.58;;;10.38;;
45326;SDS011;31062;49.678;24.560;2022-12-07T03:29:27;28.42;;;11.15;;
45326;SDS011;31062;49.678;24.560;2022-12-07T03:32:27;28.10;;;11.13;;
45326;SDS011;31062;49.678;24.560;2022-12-07T03:38:21;29.33;;;10.82;;
45326;SDS011;31062;49.678;24.560;2022-12-07T03:44:07;25.60;;;9.82;;
45326;SDS011;31062;49.678;24.560;2022-12-07T03:50:09;31.00;;;11.70;;
45326;SDS011;31062;49.678;24.560;2022-12-07T03:53:04;25.52;;;10.60;;
45326;SDS011;31062;49.678;24.560;2022-12-07T03:55:56;33.05;;;10.82;;
45326;SDS011;31062;49.678;24.560;2022-12-07T03:58:43;24.60;;;9.73;;
45326;SDS011;31062;49.678;24.560;2022-12-07T04:01:29;25.88;;;10.55;;
45326;SDS011;31062;49.678;24.560;2022-12-07T04:04:14;23.80;;;10.32;;
45326;SDS011;31062;49.678;24.560;2022-12-07T04:07:00;26.13;;;10.32;;
45326;SDS011;31062;49.678;24.560;2022-12-07T04:09:45;19.40;;;9.57;;
45326;SDS011;31062;49.678;24.560;2022-12-07T04:12:31;17.85;;;9.18;;
45326;SDS011;31062;49.678;24.560;2022-12-07T04:15:16;17.38;;;9.52;;
45326;SDS011;31062;49.678;24.560;2022-12-07T04:18:02;24.63;;;9.93;;
45326;SDS011;31062;49.678;24.560;2022-12-07T04:20:47;26.17;;;9.50;;
45326;SDS011;31062;49.678;24.560;2022-12-07T04:23:36;18.58;;;8.98;;
45326;SDS011;31062;49.678;24.560;2022-12-07T04:26:21;19.67;;;9.00;;
45326;SDS011;31062;49.678;24.560;2022-12-07T04:29:10;21.20;;;9.85;;
45326;SDS011;31062;49.678;24.560;2022-12-07T04:31:56;23.02;;;10.20;;
45326;SDS011;31062;49.678;24.560;2022-12-07T04:34:43;17.88;;;10.15;;
45326;SDS011;31062;49.678;24.560;2022-12-07T04:37:28;24.02;;;11.70;;
45326;SDS011;31062;49.678;24.560;2022-12-07T04:40:16;24.00;;;12.55;;
45326;SDS011;31062;49.678;24.560;2022-12-07T04:43:02;24.00;;;11.95;;
45326;SDS011;31062;49.678;24.560;2022-12-07T04:45:47;26.15;;;11.68;;
45326;SDS011;31062;49.678;24.560;2022-12-07T04:48:33;29.10;;;11.40;;
45326;SDS011;31062;49.678;24.560;2022-12-07T04:51:19;19.42;;;9.88;;
45326;SDS011;31062;49.678;24.560;2022-12-07T04:54:11;31.55;;;13.27;;
45326;SDS011;31062;49.678;24.560;2022-12-07T04:56:57;25.60;;;11.40;;
45326;SDS011;31062;49.678;24.560;2022-12-07T04:59:43;30.10;;;13.27;;
45326;SDS011;31062;49.678;24.560;2022-12-07T05:02:30;40.22;;;16.38;;
45326;SDS011;31062;49.678;24.560;2022-12-07T05:05:15;40.90;;;16.10;;
45326;SDS011;31062;49.678;24.560;2022-12-07T05:08:00;36.67;;;16.55;;
45326;SDS011;31062;49.678;24.560;2022-12-07T05:10:48;23.50;;;12.85;;
45326;SDS011;31062;49.678;24.560;2022-12-07T05:13:34;30.88;;;12.00;;
45326;SDS011;31062;49.678;24.560;2022-12-07T05:16:21;17.23;;;9.68;;
45326;SDS011;31062;49.678;24.560;2022-12-07T05:19:06;23.75;;;10.55;;
45326;SDS011;31062;49.678;24.560;2022-12-07T05:21:52;18.75;;;10.18;;
45326;SDS011;31062;49.678;24.560;2022-12-07T05:24:38;29.80;;;13.98;;
45326;SDS011;31062;49.678;24.560;2022-12-07T05:27:23;30.33;;;13.68;;
45326;SDS011;31062;49.678;24.560;2022-12-07T05:30:09;20.45;;;10.70;;
45326;SDS011;31062;49.678;24.560;2022-12-07T05:32:55;15.98;;;8.77;;
45326;SDS011;31062;49.678;24.560;2022-12-07T05:35:40;43.22;;;17.40;;
45326;SDS011;31062;49.678;24.560;2022-12-07T05:38:26;25.27;;;10.15;;
45326;SDS011;31062;49.678;24.560;2022-12-07T05:41:15;15.55;;;8.10;;
45326;SDS011;31062;49.678;24.560;2022-12-07T05:44:20;20.25;;;9.80;;
45326;SDS011;31062;49.678;24.560;2022-12-07T05:47:06;24.45;;;10.82;;
45326;SDS011;31062;49.678;24.560;2022-12-07T05:49:51;18.38;;;9.65;;
45326;SDS011;31062;49.678;24.560;2022-12-07T05:52:37;32.17;;;13.77;;
45326;SDS011;31062;49.678;24.560;2022-12-07T05:55:23;32.92;;;14.13;;
45326;SDS011;31062;49.678;24.560;2022-12-07T05:58:09;43.70;;;16.90;;
45326;SDS011;31062;49.678;24.560;2022-12-07T06:01:20;33.42;;;13.88;;
45326;SDS011;31062;49.678;24.560;2022-12-07T06:04:06;31.70;;;11.25;;
45326;SDS011;31062;49.678;24.560;2022-12-07T06:06:51;26.85;;;11.10;;
45326;SDS011;31062;49.678;24.560;2022-12-07T06:09:37;24.33;;;10.82;;
45326;SDS011;31062;49.678;24.560;2022-12-07T06:12:22;28.58;;;13.15;;
45326;SDS011;31062;49.678;24.560;2022-12-07T06:15:20;25.73;;;11.65;;
45326;SDS011;31062;49.678;24.560;2022-12-07T06:18:08;19.42;;;10.27;;
45326;SDS011;31062;49.678;24.560;2022-12-07T06:20:55;20.23;;;10.13;;
45326;SDS011;31062;49.678;24.560;2022-12-07T06:28:18;32.38;;;13.55;;
45326;SDS011;31062;49.678;24.560;2022-12-07T06:31:04;24.58;;;10.57;;
45326;SDS011;31062;49.678;24.560;2022-12-07T06:33:59;22.35;;;9.55;;
45326;SDS011;31062;49.678;24.560;2022-12-07T06:36:46;23.20;;;10.90;;
45326;SDS011;31062;49.678;24.560;2022-12-07T06:39:37;27.33;;;12.05;;
45326;SDS011;31062;49.678;24.560;2022-12-07T06:42:24;22.70;;;11.85;;
45326;SDS011;31062;49.678;24.560;2022-12-07T06:45:09;27.27;;;12.85;;
45326;SDS011;31062;49.678;24.560;2022-12-07T06:47:55;25.58;;;12.30;;
45326;SDS011;31062;49.678;24.560;2022-12-07T06:50:40;24.30;;;11.50;;
45326;SDS011;31062;49.678;24.560;2022-12-07T06:53:26;20.80;;;11.15;;
45326;SDS011;31062;49.678;24.560;2022-12-07T06:56:12;22.63;;;9.77;;
45326;SDS011;31062;49.678;24.560;2022-12-07T06:58:59;26.25;;;12.27;;
45326;SDS011;31062;49.678;24.560;2022-12-07T07:01:45;28.40;;;11.65;;
45326;SDS011;31062;49.678;24.560;2022-12-07T07:04:31;27.60;;;12.70;;
45326;SDS011;31062;49.678;24.560;2022-12-07T07:07:17;20.95;;;11.38;;
45326;SDS011;31062;49.678;24.560;2022-12-07T07:10:03;31.38;;;14.60;;
45326;SDS011;31062;49.678;24.560;2022-12-07T07:12:49;32.13;;;16.73;;
45326;SDS011;31062;49.678;24.560;2022-12-07T07:15:46;41.78;;;18.98;;
45326;SDS011;31062;49.678;24.560;2022-12-07T07:18:32;42.28;;;20.13;;
45326;SDS011;31062;49.678;24.560;2022-12-07T07:21:18;51.20;;;21.23;;
45326;SDS011;31062;49.678;24.560;2022-12-07T07:24:05;34.40;;;16.35;;
45326;SDS011;31062;49.678;24.560;2022-12-07T07:26:50;34.72;;;15.95;;
45326;SDS011;31062;49.678;24.560;2022-12-07T07:29:37;27.15;;;13.05;;
45326;SDS011;31062;49.678;24.560;2022-12-07T07:32:22;22.38;;;12.85;;
45326;SDS011;31062;49.678;24.560;2022-12-07T07:35:09;24.02;;;11.50;;
45326;SDS011;31062;49.678;24.560;2022-12-07T07:38:08;25.33;;;12.65;;
45326;SDS011;31062;49.678;24.560;2022-12-07T07:40:53;26.98;;;13.68;;
45326;SDS011;31062;49.678;24.560;2022-12-07T07:43:39;27.85;;;14.00;;
45326;SDS011;31062;49.678;24.560;2022-12-07T07:46:24;24.65;;;13.02;;
45326;SDS011;31062;49.678;24.560;2022-12-07T07:49:10;18.02;;;10.70;;
45326;SDS011;31062;49.678;24.560;2022-12-07T07:51:56;25.30;;;11.23;;
45326;SDS011;31062;49.678;24.560;2022-12-07T07:54:42;22.33;;;12.05;;
45326;SDS011;31062;49.678;24.560;2022-12-07T07:57:27;29.70;;;14.60;;
45326;SDS011;31062;49.678;24.560;2022-12-07T08:00:13;26.45;;;12.60;;
45326;SDS011;31062;49.678;24.560;2022-12-07T08:03:00;20.13;;;11.25;;
45326;SDS011;31062;49.678;24.560;2022-12-07T08:05:45;18.55;;;10.35;;
45326;SDS011;31062;49.678;24.560;2022-12-07T08:08:31;20.48;;;9.95;;
45326;SDS011;31062;49.678;24.560;2022-12-07T08:11:17;22.17;;;10.77;;
45326;SDS011;31062;49.678;24.560;2022-12-07T08:14:04;20.80;;;10.07;;
45326;SDS011;31062;49.678;24.560;2022-12-07T08:16:49;26.63;;;12.50;;
45326;SDS011;31062;49.678;24.560;2022-12-07T08:19:35;24.88;;;12.60;;
45326;SDS011;31062;49.678;24.560;2022-12-07T08:22:21;22.15;;;12.27;;
45326;SDS011;31062;49.678;24.560;2022-12-07T08:25:07;36.55;;;15.85;;
45326;SDS011;31062;49.678;24.560;2022-12-07T08:27:53;31.48;;;15.23;;
45326;SDS011;31062;49.678;24.560;2022-12-07T08:30:38;27.13;;;13.15;;
45326;SDS011;31062;49.678;24.560;2022-12-07T08:33:24;20.08;;;11.02;;
45326;SDS011;31062;49.678;24.560;2022-12-07T08:36:11;26.95;;;12.70;;
45326;SDS011;31062;49.678;24.560;2022-12-07T08:38:57;31.90;;;13.35;;
45326;SDS011;31062;49.678;24.560;2022-12-07T08:42:02;23.38;;;12.15;;
45326;SDS011;31062;49.678;24.560;2022-12-07T08:44:48;21.35;;;11.90;;
45326;SDS011;31062;49.678;24.560;2022-12-07T08:47:34;24.45;;;12.48;;
45326;SDS011;31062;49.678;24.560;2022-12-07T08:50:22;27.25;;;11.98;;
45326;SDS011;31062;49.678;24.560;2022-12-07T08:53:09;25.80;;;11.35;;
45326;SDS011;31062;49.678;24.560;2022-12-07T08:55:54;18.08;;;9.90;;
45326;SDS011;31062;49.678;24.560;2022-12-07T08:58:42;22.67;;;9.45;;
45326;SDS011;31062;49.678;24.560;2022-12-07T09:01:28;23.02;;;10.43;;
45326;SDS011;31062;49.678;24.560;2022-12-07T09:04:14;18.35;;;9.70;;
45326;SDS011;31062;49.678;24.560;2022-12-07T09:07:01;18.30;;;10.18;;
45326;SDS011;31062;49.678;24.560;2022-12-07T09:09:47;23.58;;;11.70;;
45326;SDS011;31062;49.678;24.560;2022-12-07T09:12:32;21.63;;;10.65;;
45326;SDS011;31062;49.678;24.560;2022-12-07T09:15:18;17.70;;;9.32;;
45326;SDS011;31062;49.678;24.560;2022-12-07T09:18:04;20.63;;;9.68;;
45326;SDS011;31062;49.678;24.560;2022-12-07T09:20:50;21.90;;;11.77;;
45326;SDS011;31062;49.678;24.560;2022-12-07T09:23:37;24.05;;;11.80;;
45326;SDS011;31062;49.678;24.560;2022-12-07T09:26:22;22.85;;;11.23;;
45326;SDS011;31062;49.678;24.560;2022-12-07T09:29:08;19.38;;;10.45;;
45326;SDS011;31062;49.678;24.560;2022-12-07T09:31:53;20.92;;;10.52;;
45326;SDS011;31062;49.678;24.560;2022-12-07T09:34:39;21.55;;;10.85;;
45326;SDS011;31062;49.678;24.560;2022-12-07T09:37:25;22.45;;;10.65;;
45326;SDS011;31062;49.678;24.560;2022-12-07T09:40:11;21.00;;;12.13;;
45326;SDS011;31062;49.678;24.560;2022-12-07T09:42:58;16.83;;;10.10;;
45326;SDS011;31062;49.678;24.560;2022-12-07T09:45:44;22.92;;;11.50;;
45326;SDS011;31062;49.678;24.560;2022-12-07T09:48:35;21.25;;;11.23;;
45326;SDS011;31062;49.678;24.560;2022-12-07T09:51:23;23.98;;;11.48;;
45326;SDS011;31062;49.678;24.560;2022-12-07T09:54:15;21.98;;;11.27;;
45326;SDS011;31062;49.678;24.560;2022-12-07T09:57:14;29.25;;;12.75;;
45326;SDS011;31062;49.678;24.560;2022-12-07T10:00:04;25.88;;;11.93;;
45326;SDS011;31062;49.678;24.560;2022-12-07T10:02:57;22.75;;;11.02;;
45326;SDS011;31062;49.678;24.560;2022-12-07T10:05:49;20.42;;;10.35;;
45326;SDS011;31062;49.678;24.560;2022-12-07T10:08:36;26.63;;;12.93;;
45326;SDS011;31062;49.678;24.560;2022-12-07T10:11:22;24.73;;;11.07;;
45326;SDS011;31062;49.678;24.560;2022-12-07T10:14:11;26.05;;;12.60;;
45326;SDS011;31062;49.678;24.560;2022-12-07T10:16:59;21.03;;;11.13;;
45326;SDS011;31062;49.678;24.560;2022-12-07T10:19:45;23.00;;;10.20;;
45326;SDS011;31062;49.678;24.560;2022-12-07T10:22:30;20.83;;;11.35;;
45326;SDS011;31062;49.678;24.560;2022-12-07T10:25:20;21.08;;;10.30;;
45326;SDS011;31062;49.678;24.560;2022-12-07T10:33:55;21.83;;;11.03;;
45326;SDS011;31062;49.678;24.560;2022-12-07T10:36:43;18.60;;;9.32;;
45326;SDS011;31062;49.678;24.560;2022-12-07T10:39:29;20.40;;;10.90;;
45326;SDS011;31062;49.678;24.560;2022-12-07T10:42:29;24.25;;;11.57;;
45326;SDS011;31062;49.678;24.560;2022-12-07T10:45:17;20.42;;;10.50;;
45326;SDS011;31062;49.678;24.560;2022-12-07T10:48:20;23.25;;;11.68;;
45326;SDS011;31062;49.678;24.560;2022-12-07T10:57:27;20.50;;;10.50;;
45326;SDS011;31062;49.678;24.560;2022-12-07T11:00:31;21.75;;;12.50;;
45326;SDS011;31062;49.678;24.560;2022-12-07T11:06:37;28.27;;;12.05;;
45326;SDS011;31062;49.678;24.560;2022-12-07T11:12:50;26.27;;;10.55;;
45326;SDS011;31062;49.678;24.560;2022-12-07T11:15:57;26.17;;;11.68;;
45326;SDS011;31062;49.678;24.560;2022-12-07T11:37:34;22.17;;;11.85;;
45326;SDS011;31062;49.678;24.560;2022-12-07T11:40:25;27.05;;;12.65;;
45326;SDS011;31062;49.678;24.560;2022-12-07T11:46:12;26.23;;;13.00;;
45326;SDS011;31062;49.678;24.560;2022-12-07T11:49:08;23.83;;;13.07;;
45326;SDS011;31062;49.678;24.560;2022-12-07T11:52:00;22.33;;;12.07;;
45326;SDS011;31062;49.678;24.560;2022-12-07T11:54:49;24.70;;;11.52;;
45326;SDS011;31062;49.678;24.560;2022-12-07T11:58:04;20.83;;;12.02;;
45326;SDS011;31062;49.678;24.560;2022-12-07T12:06:55;25.67;;;12.43;;
45326;SDS011;31062;49.678;24.560;2022-12-07T12:09:45;27.25;;;14.25;;
45326;SDS011;31062;49.678;24.560;2022-12-07T12:22:18;37.08;;;16.88;;
45326;SDS011;31062;49.678;24.560;2022-12-07T12:25:19;30.23;;;15.55;;
45326;SDS011;31062;49.678;24.560;2022-12-07T12:28:20;24.00;;;13.98;;
45326;SDS011;31062;49.678;24.560;2022-12-07T12:31:29;30.95;;;15.75;;
45326;SDS011;31062;49.678;24.560;2022-12-07T12:34:38;46.13;;;21.30;;
45326;SDS011;31062;49.678;24.560;2022-12-07T12:43:27;30.30;;;13.50;;
45326;SDS011;31062;49.678;24.560;2022-12-07T12:54:58;23.20;;;13.63;;
45326;SDS011;31062;49.678;24.560;2022-12-07T12:57:48;25.20;;;12.80;;
45326;SDS011;31062;49.678;24.560;2022-12-07T13:04:27;23.40;;;12.40;;
45326;SDS011;31062;49.678;24.560;2022-12-07T13:10:37;25.45;;;14.07;;
45326;SDS011;31062;49.678;24.560;2022-12-07T13:13:28;29.73;;;14.95;;
45326;SDS011;31062;49.678;24.560;2022-12-07T13:19:01;42.22;;;19.40;;
45326;SDS011;31062;49.678;24.560;2022-12-07T13:21:47;47.42;;;23.45;;
45326;SDS011;31062;49.678;24.560;2022-12-07T13:24:32;52.75;;;23.40;;
45326;SDS011;31062;49.678;24.560;2022-12-07T13:27:18;45.40;;;21.17;;
45326;SDS011;31062;49.678;24.560;2022-12-07T13:30:09;40.97;;;19.98;;
45326;SDS011;31062;49.678;24.560;2022-12-07T13:33:00;49.72;;;23.63;;
45326;SDS011;31062;49.678;24.560;2022-12-07T13:35:48;55.03;;;24.50;;
45326;SDS011;31062;49.678;24.560;2022-12-07T13:38:39;47.55;;;21.77;;
45326;SDS011;31062;49.678;24.560;2022-12-07T13:41:34;33.85;;;17.25;;
45326;SDS011;31062;49.678;24.560;2022-12-07T13:44:20;31.05;;;16.17;;
45326;SDS011;31062;49.678;24.560;2022-12-07T13:47:09;31.85;;;14.23;;
45326;SDS011;31062;49.678;24.560;2022-12-07T13:50:00;41.95;;;18.30;;
45326;SDS011;31062;49.678;24.560;2022-12-07T13:52:46;39.72;;;19.83;;
45326;SDS011;31062;49.678;24.560;2022-12-07T13:55:33;36.63;;;17.92;;
45326;SDS011;31062;49.678;24.560;2022-12-07T13:58:19;41.20;;;18.02;;
45326;SDS011;31062;49.678;24.560;2022-12-07T14:01:05;46.03;;;19.90;;
45326;SDS011;31062;49.678;24.560;2022-12-07T14:03:51;55.45;;;23.45;;
45326;SDS011;31062;49.678;24.560;2022-12-07T14:06:37;48.78;;;21.55;;
45326;SDS011;31062;49.678;24.560;2022-12-07T14:09:37;44.05;;;20.63;;
45326;SDS011;31062;49.678;24.560;2022-12-07T14:12:23;41.42;;;20.60;;
45326;SDS011;31062;49.678;24.560;2022-12-07T14:15:19;38.97;;;18.30;;
45326;SDS011;31062;49.678;24.560;2022-12-07T14:18:24;47.70;;;20.85;;
45326;SDS011;31062;49.678;24.560;2022-12-07T14:21:17;40.72;;;19.92;;
45326;SDS011;31062;49.678;24.560;2022-12-07T14:24:10;46.35;;;22.13;;
45326;SDS011;31062;49.678;24.560;2022-12-07T14:27:15;51.20;;;22.58;;
45326;SDS011;31062;49.678;24.560;2022-12-07T14:30:14;46.97;;;22.23;;
45326;SDS011;31062;49.678;24.560;2022-12-07T14:33:03;43.17;;;22.60;;
45326;SDS011;31062;49.678;24.560;2022-12-07T14:35:49;45.90;;;21.85;;
45326;SDS011;31062;49.678;24.560;2022-12-07T14:38:35;37.55;;;20.20;;
45326;SDS011;31062;49.678;24.560;2022-12-07T14:41:20;39.83;;;19.23;;
45326;SDS011;31062;49.678;24.560;2022-12-07T14:44:26;57.70;;;26.52;;
45326;SDS011;31062;49.678;24.560;2022-12-07T14:47:20;59.67;;;26.38;;
45326;SDS011;31062;49.678;24.560;2022-12-07T14:50:25;60.88;;;30.70;;
45326;SDS011;31062;49.678;24.560;2022-12-07T14:53:16;75.32;;;36.38;;
45326;SDS011;31062;49.678;24.560;2022-12-07T14:56:07;64.90;;;34.67;;
45326;SDS011;31062;49.678;24.560;2022-12-07T14:58:53;47.17;;;27.83;;
45326;SDS011;31062;49.678;24.560;2022-12-07T15:01:38;42.72;;;22.05;;
45326;SDS011;31062;49.678;24.560;2022-12-07T15:04:24;39.08;;;20.60;;
45326;SDS011;31062;49.678;24.560;2022-12-07T15:07:12;35.08;;;19.33;;
45326;SDS011;31062;49.678;24.560;2022-12-07T15:10:04;31.98;;;17.27;;
45326;SDS011;31062;49.678;24.560;2022-12-07T15:12:50;31.73;;;14.93;;
45326;SDS011;31062;49.678;24.560;2022-12-07T15:15:36;34.17;;;17.17;;
45326;SDS011;31062;49.678;24.560;2022-12-07T15:18:22;34.33;;;18.92;;
45326;SDS011;31062;49.678;24.560;2022-12-07T15:21:12;29.05;;;16.63;;
45326;SDS011;31062;49.678;24.560;2022-12-07T15:23:59;28.73;;;15.60;;
45326;SDS011;31062;49.678;24.560;2022-12-07T15:26:45;32.42;;;17.85;;
45326;SDS011;31062;49.678;24.560;2022-12-07T15:29:31;33.83;;;18.92;;
45326;SDS011;31062;49.678;24.560;2022-12-07T15:32:17;37.65;;;18.50;;
45326;SDS011;31062;49.678;24.560;2022-12-07T15:35:03;29.60;;;16.17;;
45326;SDS011;31062;49.678;24.560;2022-12-07T15:37:49;24.70;;;15.68;;
45326;SDS011;31062;49.678;24.560;2022-12-07T15:40:35;29.63;;;16.30;;
45326;SDS011;31062;49.678;24.560;2022-12-07T15:43:21;31.77;;;15.52;;
45326;SDS011;31062;49.678;24.560;2022-12-07T15:46:32;27.02;;;14.40;;
45326;SDS011;31062;49.678;24.560;2022-12-07T15:49:19;31.17;;;15.68;;
45326;SDS011;31062;49.678;24.560;2022-12-07T15:52:04;28.90;;;15.02;;
45326;SDS011;31062;49.678;24.560;2022-12-07T15:54:50;34.72;;;18.55;;
45326;SDS011;31062;49.678;24.560;2022-12-07T15:57:37;27.02;;;16.08;;
45326;SDS011;31062;49.678;24.560;2022-12-07T16:00:23;30.33;;;15.88;;
45326;SDS011;31062;49.678;24.560;2022-12-07T16:03:08;38.35;;;17.42;;
45326;SDS011;31062;49.678;24.560;2022-12-07T16:05:54;53.00;;;24.20;;
45326;SDS011;31062;49.678;24.560;2022-12-07T16:08:45;52.90;;;24.55;;
45326;SDS011;31062;49.678;24.560;2022-12-07T16:11:31;48.97;;;22.88;;
45326;SDS011;31062;49.678;24.560;2022-12-07T16:14:17;82.03;;;37.92;;
45326;SDS011;31062;49.678;24.560;2022-12-07T16:17:03;80.20;;;34.60;;
45326;SDS011;31062;49.678;24.560;2022-12-07T16:19:50;77.53;;;35.53;;
45326;SDS011;31062;49.678;24.560;2022-12-07T16:22:36;50.38;;;24.77;;
45326;SDS011;31062;49.678;24.560;2022-12-07T16:25:23;47.72;;;21.63;;
45326;SDS011;31062;49.678;24.560;2022-12-07T16:28:08;48.85;;;22.65;;
45326;SDS011;31062;49.678;24.560;2022-12-07T16:31:01;46.08;;;23.88;;
45326;SDS011;31062;49.678;24.560;2022-12-07T16:33:48;55.75;;;23.70;;
45326;SDS011;31062;49.678;24.560;2022-12-07T16:36:35;58.47;;;27.63;;
45326;SDS011;31062;49.678;24.560;2022-12-07T16:39:40;57.20;;;25.80;;
45326;SDS011;31062;49.678;24.560;2022-12-07T16:42:26;57.47;;;23.33;;
45326;SDS011;31062;49.678;24.560;2022-12-07T16:45:11;44.13;;;20.98;;
45326;SDS011;31062;49.678;24.560;2022-12-07T16:48:04;39.00;;;19.27;;
45326;SDS011;31062;49.678;24.560;2022-12-07T16:50:50;36.58;;;17.45;;
45326;SDS011;31062;49.678;24.560;2022-12-07T16:53:39;39.47;;;18.85;;
45326;SDS011;31062;49.678;24.560;2022-12-07T16:56:26;42.72;;;18.20;;
45326;SDS011;31062;49.678;24.560;2022-12-07T16:59:14;43.35;;;19.77;;
45326;SDS011;31062;49.678;24.560;2022-12-07T17:01:59;32.83;;;18.70;;
45326;SDS011;31062;49.678;24.560;2022-12-07T17:04:45;42.63;;;19.08;;
45326;SDS011;31062;49.678;24.560;2022-12-07T17:07:31;43.97;;;20.20;;
45326;SDS011;31062;49.678;24.560;2022-12-07T17:10:17;34.92;;;17.92;;
45326;SDS011;31062;49.678;24.560;2022-12-07T17:13:02;32.50;;;17.52;;
45326;SDS011;31062;49.678;24.560;2022-12-07T17:16:09;41.03;;;20.98;;
45326;SDS011;31062;49.678;24.560;2022-12-07T17:18:55;38.80;;;19.00;;
45326;SDS011;31062;49.678;24.560;2022-12-07T17:21:42;39.60;;;19.85;;
45326;SDS011;31062;49.678;24.560;2022-12-07T17:24:28;32.70;;;16.73;;
45326;SDS011;31062;49.678;24.560;2022-12-07T17:27:13;26.98;;;15.27;;
45326;SDS011;31062;49.678;24.560;2022-12-07T17:29:59;34.28;;;17.88;;
45326;SDS011;31062;49.678;24.560;2022-12-07T17:32:44;34.58;;;18.13;;
45326;SDS011;31062;49.678;24.560;2022-12-07T17:35:29;22.83;;;13.70;;
45326;SDS011;31062;49.678;24.560;2022-12-07T17:43:06;22.73;;;12.52;;
45326;SDS011;31062;49.678;24.560;2022-12-07T17:45:52;27.70;;;12.93;;
45326;SDS011;31062;49.678;24.560;2022-12-07T17:48:37;25.98;;;12.15;;
45326;SDS011;31062;49.678;24.560;2022-12-07T17:51:23;29.58;;;12.50;;
45326;SDS011;31062;49.678;24.560;2022-12-07T17:54:27;27.65;;;13.27;;
45326;SDS011;31062;49.678;24.560;2022-12-07T17:57:13;21.95;;;13.70;;
45326;SDS011;31062;49.678;24.560;2022-12-07T17:59:59;22.98;;;12.90;;
45326;SDS011;31062;49.678;24.560;2022-12-07T18:02:44;27.92;;;14.00;;
45326;SDS011;31062;49.678;24.560;2022-12-07T18:05:30;22.80;;;13.52;;
45326;SDS011;31062;49.678;24.560;2022-12-07T18:08:17;26.40;;;13.30;;
45326;SDS011;31062;49.678;24.560;2022-12-07T18:11:04;33.40;;;15.13;;
45326;SDS011;31062;49.678;24.560;2022-12-07T18:13:50;28.45;;;14.60;;
45326;SDS011;31062;49.678;24.560;2022-12-07T18:16:36;29.23;;;15.38;;
45326;SDS011;31062;49.678;24.560;2022-12-07T18:19:22;32.13;;;16.77;;